Latest Coastal Weather Observations for Cape Willoughby

IDS60701

Issued at 4:05 pm CDT Saturday 25 October 2014 (issued every 10 minutes, with the page automatically refreshed every 10 minutes)

About coastal observations | Map of coastal stations | Coastal observations for SA | Marine services | Other Formats
Station Details ID: 022803 Name: CAPE WILLOUGHBY Lat: -35.84 Lon: 138.13 Height: 55.0 m
Data from the previous 72 hours. | See also: Recent months at Cape Willoughby
Date/Time
CDT
Temp

°C
Wind Pressure Rain
since 9am
mm
Weather Cloud Vis
km
Sea
Height
m
Swell
Dir
 
Speed
knots
Gust
knots
hPa Trend Height
m
Period
s
Dir
25/04:00pm 15.8 SSE 7 9 1016.4 - 0.0 - - - - - - -
25/03:30pm 16.2 S 7 9 1016.5 - 0.0 - - - - - - -
25/03:00pm 16.5 S 7 10 1016.6 - 0.0 - - - - - - -
25/02:30pm 16.4 S 9 12 1016.9 - 0.0 - - - - - - -
25/02:00pm 16.5 S 10 13 1017.0 - 0.0 - - - - - - -
25/01:30pm 16.5 S 8 10 1017.2 - 0.0 - - - - - - -
25/01:00pm 16.3 SSE 6 8 1017.3 - 0.0 - - - - - - -
25/12:30pm 16.5 S 7 9 1017.5 - 0.0 - - - - - - -
25/12:00pm 16.3 S 7 9 1017.7 - 0.0 - - - - - - -
25/11:30am 16.0 S 6 8 1018.0 - 0.0 - - - - - - -
25/11:00am 16.3 SSE 4 6 1018.0 - 0.0 - - - - - - -
25/10:30am 16.8 SE 5 7 1018.1 - 0.0 - - - - - - -
25/10:00am 15.7 SE 7 9 1018.2 - 0.0 - - - - - - -
25/09:30am 15.1 SE 7 8 1018.2 - 0.0 - - - - - - -
25/09:00am 14.9 SSE 4 6 1018.3 - 0.0 - - - - - - -
25/08:30am 14.9 SE 6 8 1018.1 - 0.0 - - - - - - -
25/08:00am 14.4 SE 8 9 1018.1 - 0.0 - - - - - - -
25/07:30am 14.4 SSE 8 10 1017.8 - 0.0 - - - - - - -
25/07:00am 14.4 SE 8 11 1017.3 - 0.0 - - - - - - -
25/06:30am 14.3 SE 8 11 1017.0 - 0.0 - - - - - - -
25/06:00am 14.4 SE 7 10 1016.7 - 0.0 - - - - - - -
25/05:30am 14.2 ESE 8 11 1016.4 - 0.0 - - - - - - -
25/05:00am 14.3 ESE 9 13 1016.3 - 0.0 - - - - - - -
25/04:30am 14.5 ESE 10 12 1016.0 - 0.0 - - - - - - -
25/04:00am 14.5 ESE 10 12 1015.9 - 0.0 - - - - - - -
25/03:30am 14.7 ESE 10 13 1015.8 - 0.0 - - - - - - -
25/03:00am 14.7 ESE 11 14 1015.9 - 0.0 - - - - - - -
25/02:30am 14.6 SE 11 14 1015.8 - 0.0 - - - - - - -
25/02:00am 14.8 SE 12 15 1015.9 - 0.0 - - - - - - -
25/01:30am 14.8 SE 11 14 1016.1 - 0.0 - - - - - - -
25/01:00am 14.8 SE 11 13 1016.5 - 0.0 - - - - - - -
25/12:30am 14.7 SE 10 11 1016.8 - 0.0 - - - - - - -
25/12:00am 14.7 SE 9 11 1016.8 - 0.0 - - - - - - -
 
Date/Time
CDT
Temp

°C
Wind Pressure Rain
since 9am
mm
Weather Cloud Vis
km
Sea
Height
m
Swell
Dir
 
Speed
knots
Gust
knots
hPa Trend Height
m
Period
s
Dir
24/11:30pm 14.8 SSE 9 11 1017.0 - 0.0 - - - - - - -
24/11:00pm 14.9 SSE 10 12 1016.9 - 0.0 - - - - - - -
24/10:30pm 15.0 SSE 10 12 1016.8 - 0.0 - - - - - - -
24/10:00pm 15.0 SSE 10 13 1016.6 - 0.0 - - - - - - -
24/09:30pm 15.0 SSE 10 12 1016.4 - 0.0 - - - - - - -
24/09:00pm 14.9 S 11 15 1016.0 - 0.0 - - - - - - -
24/08:30pm 15.0 S 13 16 1015.7 - 0.0 - - - - - - -
24/08:00pm 14.9 S 13 15 1015.5 - 0.0 - - - - - - -
24/07:30pm 15.1 S 14 18 1015.2 - 0.0 - - - - - - -
24/07:00pm 15.3 S 14 17 1014.8 - 0.0 - - - - - - -
24/06:30pm 15.5 S 15 19 1014.2 - 0.0 - - - - - - -
24/06:00pm 15.9 S 12 19 1014.1 - 0.0 - - - - - - -
24/05:30pm 16.8 SSW 11 16 1014.1 - 0.0 - - - - - - -
24/05:00pm 17.8 SSW 13 16 1013.9 - 0.0 - - - - - - -
24/04:30pm 17.7 SSW 12 15 1014.0 - 0.0 - - - - - - -
24/04:00pm 18.6 SSW 13 16 1013.6 - 0.0 - - - - - - -
24/03:30pm 19.5 SSW 10 14 1013.7 - 0.0 - - - - - - -
24/03:00pm 19.6 S 8 13 1013.9 - 0.0 - - - - - - -
24/02:30pm 22.6 SW 9 12 1013.9 - 0.0 - - - - - - -
24/02:00pm 23.1 WNW 5 10 1013.6 - 0.0 - - - - - - -
24/01:30pm 20.8 NNW 15 18 1013.6 - 0.0 - - - - - - -
24/01:00pm 22.1 NNW 14 17 1013.5 - 0.0 - - - - - - -
24/12:30pm 21.8 NNW 15 18 1013.6 - 0.0 - - - - - - -
24/12:00pm 21.4 N 14 17 1013.7 - 0.0 - - - - - - -
24/11:30am 21.0 NNW 15 17 1013.9 - 0.0 - - - - - - -
24/11:00am 20.4 NNW 16 19 1014.1 - 0.0 - - - - - - -
24/10:30am 19.4 NNW 16 19 1014.2 - 0.0 - - - - - - -
24/10:00am 19.2 NNW 12 17 1014.5 - 0.0 - - - - - - -
24/09:30am 18.8 NNW 12 15 1014.5 - 0.0 - - - - - - -
24/09:00am 17.5 NNW 10 13 1014.0 - - - - - - - - -
24/08:30am 16.5 NNW 9 13 1013.8 - - - - - - - - -
24/08:00am 15.1 NNW 5 10 1013.7 - - - - - - - - -
24/07:30am 14.9 NW 4 8 1014.1 - - - - - - - - -
24/07:00am 14.5 NNW 6 10 1013.5 - - - - - - - - -
24/06:30am 14.8 NNW 13 21 1013.0 - - - - - - - - -
24/06:00am 13.9 NNW 12 17 1012.5 - - - - - - - - -
24/05:30am 12.9 NNW 7 11 1012.2 - - - - - - - - -
24/05:00am 12.5 N 4 5 1011.6 - - - - - - - - -
24/04:30am 12.6 CALM 0 0 1011.6 - 0.0 - - - - - - -
24/04:00am 12.9 CALM 0 0 1011.8 - 0.0 - - - - - - -
24/03:30am 12.5 NW 1 2 1012.4 - 0.0 - - - - - - -
24/03:00am 12.2 NNW 3 4 1013.0 - 0.0 - - - - - - -
24/02:30am 12.2 WNW 3 4 1013.4 - 0.0 - - - - - - -
24/02:00am 12.8 S 2 3 1013.6 - 0.0 - - - - - - -
24/01:30am 13.2 ESE 1 2 1014.1 - 0.0 - - - - - - -
24/01:00am 13.3 CALM 0 0 1014.4 - 0.0 - - - - - - -
24/12:30am 13.4 S 3 6 1014.6 - 0.0 - - - - - - -
24/12:00am 13.5 SSW 2 5 1015.5 - 0.0 - - - - - - -
 
Date/Time
CDT
Temp

°C
Wind Pressure Rain
since 9am
mm
Weather Cloud Vis
km
Sea
Height
m
Swell
Dir
 
Speed
knots
Gust
knots
hPa Trend Height
m
Period
s
Dir
23/11:30pm 13.6 SW 4 7 1015.6 - 0.0 - - - - - - -
23/11:00pm 13.5 S 4 7 1015.8 - 0.0 - - - - - - -
23/10:30pm 13.7 S 5 8 1015.8 - 0.0 - - - - - - -
23/10:00pm 13.6 S 7 10 1015.7 - 0.0 - - - - - - -
23/09:30pm 13.9 S 5 8 1015.7 - 0.0 - - - - - - -
23/09:00pm 13.9 SSE 5 7 1015.9 - 0.0 - - - - - - -
23/08:30pm 14.1 S 5 8 1015.9 - 0.0 - - - - - - -
23/08:00pm 14.0 SSE 4 5 1015.9 - 0.0 - - - - - - -
23/07:30pm 14.2 S 6 9 1015.6 - 0.0 - - - - - - -
23/07:00pm 14.3 S 7 10 1015.6 - 0.0 - - - - - - -
23/06:30pm 14.3 SSE 8 12 1015.2 - 0.0 - - - - - - -
23/06:00pm 14.4 S 11 14 1015.6 - 0.0 - - - - - - -
23/05:30pm 14.7 S 10 14 1015.4 - 0.0 - - - - - - -
23/05:00pm 14.6 SSE 9 12 1015.4 - 0.0 - - - - - - -
23/04:30pm 14.8 S 10 13 1015.3 - 0.0 - - - - - - -
23/04:00pm 15.1 S 11 15 1015.5 - 0.0 - - - - - - -
23/03:30pm 14.8 SSE 10 14 1015.8 - 0.0 - - - - - - -
23/03:00pm 15.4 SSE 7 9 1016.2 - 0.0 - - - - - - -
23/02:30pm 14.9 SSE 8 12 1016.5 - 0.0 - - - - - - -
23/02:00pm 15.2 SSE 9 11 1016.8 - 0.0 - - - - - - -
23/01:30pm 15.1 SSE 7 10 1017.2 - 0.0 - - - - - - -
23/01:00pm 15.2 SE 9 12 1017.5 - 0.0 - - - - - - -
23/12:30pm 15.2 SE 11 14 1017.7 - 0.0 - - - - - - -
23/12:00pm 15.1 SE 12 16 1018.0 - 0.0 - - - - - - -
23/11:30am 15.0 SE 12 15 1018.2 - 0.0 - - - - - - -
23/11:00am 14.8 SE 14 17 1018.5 - 0.0 - - - - - - -
23/10:30am 14.5 SE 14 18 1018.6 - 0.0 - - - - - - -
23/10:00am 14.5 SE 15 19 1018.9 - 0.0 - - - - - - -
23/09:30am 14.4 SE 15 18 1019.0 - 0.0 - - - - - - -
23/09:00am 14.2 SE 15 19 1019.1 - 0.0 - - - - - - -
23/08:30am 13.9 SE 16 21 1019.3 - 0.0 - - - - - - -
23/08:00am 14.0 SE 16 21 1019.1 - 0.0 - - - - - - -
23/07:30am 13.6 SE 13 16 1019.4 - 0.0 - - - - - - -
23/07:00am 13.5 SE 18 23 1019.3 - 0.0 - - - - - - -
23/06:30am 13.4 SSE 16 20 1019.1 - 0.0 - - - - - - -
23/06:00am 13.6 SE 15 20 1019.1 - 0.0 - - - - - - -
23/05:30am 14.0 SSE 16 22 1018.9 - 0.0 - - - - - - -
23/05:00am 13.9 SE 18 21 1019.1 - 0.0 - - - - - - -
23/04:30am 14.0 SE 17 20 1018.7 - 0.0 - - - - - - -
23/04:00am 14.0 SSE 16 20 1019.0 - 0.0 - - - - - - -
23/03:30am 14.1 SSE 16 21 1019.1 - 0.0 - - - - - - -
23/03:00am 14.0 SSE 17 21 1019.2 - 0.0 - - - - - - -
23/02:30am 14.3 SSE 16 20 1019.3 - 0.0 - - - - - - -
23/02:00am 14.0 SSE 15 20 1019.7 - 0.0 - - - - - - -
23/01:30am 13.8 SSE 15 19 1020.2 - 0.0 - - - - - - -
23/01:00am 13.7 SSE 15 21 1020.4 - 0.0 - - - - - - -
23/12:30am 14.0 SSE 14 20 1020.6 - 0.0 - - - - - - -
23/12:00am 13.8 SSE 16 22 1020.6 - 0.0 - - - - - - -
 
Date/Time
CDT
Temp

°C
Wind Pressure Rain
since 9am
mm
Weather Cloud Vis
km
Sea
Height
m
Swell
Dir
 
Speed
knots
Gust
knots
hPa Trend Height
m
Period
s
Dir
22/11:30pm 13.8 SSE 19 24 1021.0 - 0.0 - - - - - - -
22/11:00pm 13.7 SSE 17 23 1020.9 - 0.0 - - - - - - -
22/10:30pm 14.2 SSE 16 20 1021.3 - 0.0 - - - - - - -
22/10:00pm 13.9 SSE 17 22 1021.1 - 0.0 - - - - - - -
22/09:30pm 14.0 SSE 16 22 1021.0 - 0.0 - - - - - - -
22/09:00pm 14.1 SSE 16 22 1020.6 - 0.0 - - - - - - -
22/08:30pm 14.2 SSE 16 23 1020.4 - 0.0 - - - - - - -
22/08:00pm 14.2 SSE 18 22 1019.8 - 0.0 - - - - - - -
22/07:30pm 14.3 S 19 25 1019.7 - 0.0 - - - - - - -
22/07:00pm 14.4 S 21 25 1019.3 - 0.0 - - - - - - -
22/06:30pm 14.6 S 20 25 1019.1 - 0.0 - - - - - - -
22/06:00pm 14.4 S 19 24 1019.1 - 0.0 - - - - - - -
22/05:30pm 14.5 S 18 23 1019.0 - 0.0 - - - - - - -
22/05:00pm 14.7 S 19 23 1019.0 - 0.0 - - - - - - -
22/04:30pm 14.9 S 19 25 1018.8 - 0.0 - - - - - - -

Other Formats:

Comma delimited format used in spreadsheet applications
http://www.bom.gov.au/fwo/IDS60701/IDS60701.94822.axf

JavaScript Object Notation format (JSON) in row-major order
http://www.bom.gov.au/fwo/IDS60701/IDS60701.94822.json